METAR de aeropuertos de Murcia y cercanos

 

LEMI - Murcia/Corvera
Actualización: 01/07/2022 09:00
Partly Cloudy
Partly Cloudy
 Viento del NNE
Viento: NNE 9 km/h
Temperatura: 23°C
Rocío: 19°C
Humedad: 78%
Barómetro: 1017 hPa
Nubosidad: Partly Cloudy
Visibilidad: 10 km
Cloud details: Partly Cloudy 762 m
2022/07/01 07:00 LEMI 010700Z 03005KT 340V070 9999 SCT025 23/19 Q1017
LERI - Murcia/Alcantarilla
Actualización: 01/07/2022 09:00
Partly Cloudy
Partly Cloudy
 Viento del SSO
Viento: SSO 6 km/h
Temperatura: 23°C
Rocío: 19°C
Humedad: 78%
Barómetro: 1017 hPa
Nubosidad: Partly Cloudy
Visibilidad: 7 km
Cloud details: Few Clouds 152 m
Partly Cloudy 549 m
2022/07/01 07:00 LERI 010700Z 21003KT 170V280 7000 FEW005 SCT018 23/19 Q1017 NOSIG
LELC - Murcia/San Javier
Actualización: 01/07/2022 09:00
Mostly Cloudy
Mostly Cloudy
 Viento del N
Viento: N 7 km/h
Temperatura: 24°C
Rocío: 21°C
Humedad: 83%
Barómetro: 1016 hPa
Nubosidad: Mostly Cloudy
Visibilidad: 9 km
Cloud details: Partly Cloudy 457 m
Mostly Cloudy 1067 m
2022/07/01 07:00 LELC 010700Z 36004KT 290V020 9000 SCT015 BKN035 24/21 Q1016 NOSIG
 
LEAL - Alicante
Actualización: 01/07/2022 09:00
Partly Cloudy
Partly Cloudy
 Viento del E
Viento: E 13 km/h
Temperatura: 25°C
Rocío: 20°C
Humedad: 74%
Barómetro: 1016 hPa
Nubosidad: Partly Cloudy
Visibilidad: 10 km
Cloud details: Partly Cloudy 366 m
2022/07/01 07:00 LEAL 010700Z 09007KT 060V130 9999 SCT012 25/20 Q1016 NOSIG
LEAB - Albacete
Actualización: 01/07/2022 09:00
Few Clouds
Few Clouds
 Viento del ESE
Viento: ESE 17 km/h
Temperatura: 20°C
Rocío: 16°C
Humedad: 78%
Barómetro: 1018 hPa
Nubosidad: Few Clouds
Visibilidad: 10 km
Cloud details: Few Clouds 396 m
2022/07/01 07:00 LEAB 010700Z 11009KT 090V160 9999 FEW013 20/16 Q1018 NOSIG
LEAM - Almería
Actualización: 01/07/2022 09:00
Despejado
Despejado
 Viento del SSE
Viento: SSE 7 km/h
Temperatura: 23°C
Rocío: 18°C
Humedad: 74%
Barómetro: 1015 hPa
Resumen: Despejado
Visibilidad: greater than 10 km
2022/07/01 07:00 LEAM 010700Z 16004KT 120V200 CAVOK 23/18 Q1015

La estación de MeteoMurcia.com, publica sus datos en los siguientes proyectos:

Weather Underground PWS IMURCIAP2 Meteoclimatic www.awekas.at

W3Counter
Web Analytics